Time;durP1;ratioP1;P1;durP2;ratioP2;P2;SDS_P1;SDS_P2;PMS_P1;PMS_P2;Temp;Humidity;BMP_temperature;BMP_pressure;BME280_temperature;BME280_humidity;BME280_pressure;Samples;Min_cycle;Max_cycle;Signal;HPM_P1;HPM_P2
2022/04/07 00:01:50;;;;;;;2.10;1.80;;;16.40;53.30;15.60;98754.00;;;;5060137;28;20045;-65
2022/04/07 00:04:36;;;;;;;2.85;2.00;;;16.50;53.40;15.60;98749.00;;;;5059497;28;20475;-65
2022/04/07 00:07:22;;;;;;;3.72;1.98;;;16.40;53.30;15.60;98749.00;;;;5050608;28;20044;-65
2022/04/07 00:10:08;;;;;;;2.83;1.85;;;16.50;53.40;15.60;98747.00;;;;5051985;28;20036;-65
2022/04/07 00:12:54;;;;;;;1.92;1.70;;;16.40;53.30;15.60;98737.00;;;;5054088;28;20525;-65
2022/04/07 00:15:41;;;;;;;4.40;2.15;;;16.40;53.40;15.60;98731.00;;;;5041605;28;20040;-65
2022/04/07 00:18:27;;;;;;;2.95;1.83;;;16.40;53.30;15.60;98721.00;;;;5053575;28;20497;-65
2022/04/07 00:21:24;;;;;;;3.00;2.10;;;16.50;53.40;15.60;98727.00;;;;5039970;28;20438;-65
2022/04/07 00:24:10;;;;;;;2.53;1.75;;;16.50;53.30;15.60;98730.00;;;;5043509;28;20047;-65
2022/04/07 00:26:56;;;;;;;1.75;1.55;;;16.40;53.20;15.60;98718.00;;;;5051983;28;20048;-65
2022/04/07 00:29:43;;;;;;;3.03;1.90;;;16.50;53.20;15.60;98706.00;;;;5054278;28;20311;-65
2022/04/07 00:32:29;;;;;;;2.50;1.88;;;16.40;53.20;15.60;98705.00;;;;5055932;28;20045;-65
2022/04/07 00:35:16;;;;;;;2.67;1.98;;;16.40;53.20;15.60;98693.00;;;;5058079;28;20498;-65
2022/04/07 00:38:03;;;;;;;2.00;1.77;;;16.50;53.20;15.60;98697.00;;;;5052074;28;20085;-65
2022/04/07 00:40:49;;;;;;;2.33;1.60;;;16.50;53.20;15.60;98695.00;;;;5039415;28;20451;-65
2022/04/07 00:43:36;;;;;;;1.60;1.50;;;16.50;53.20;15.60;98686.00;;;;5048709;28;20044;-65
2022/04/07 00:46:22;;;;;;;4.20;1.67;;;16.50;53.20;15.60;98681.00;;;;5073313;28;20041;-65
2022/04/07 00:49:09;;;;;;;2.47;1.63;;;16.50;53.30;15.60;98675.00;;;;5052524;28;20040;-65
2022/04/07 00:51:55;;;;;;;2.95;1.55;;;16.40;53.20;15.60;98671.00;;;;5044019;28;20049;-66
2022/04/07 00:54:41;;;;;;;3.33;1.55;;;16.50;53.20;15.60;98666.00;;;;5055974;28;20036;-65
2022/04/07 00:57:27;;;;;;;1.90;1.30;;;16.60;53.30;15.60;98659.00;;;;5052050;28;20052;-65
2022/04/07 01:00:13;;;;;;;2.83;1.80;;;16.40;53.20;15.60;98649.00;;;;5030322;28;20087;-65
2022/04/07 01:03:00;;;;;;;2.58;1.50;;;16.40;53.20;15.60;98648.00;;;;5046530;28;20119;-65
2022/04/07 01:05:46;;;;;;;1.50;1.40;;;16.40;53.30;15.70;98632.00;;;;5041519;28;20122;-65
2022/04/07 01:08:32;;;;;;;2.17;1.42;;;16.50;53.30;15.60;98623.00;;;;5062613;28;20040;-65
2022/04/07 01:11:21;;;;;;;3.67;1.83;;;16.50;53.30;15.60;98622.00;;;;5052169;28;20048;-65
2022/04/07 01:14:08;;;;;;;2.53;1.48;;;16.50;53.30;15.60;98618.00;;;;5039579;28;20395;-65
2022/04/07 01:16:54;;;;;;;2.85;1.52;;;16.40;53.20;15.60;98612.00;;;;5046041;28;20048;-65
2022/04/07 01:19:40;;;;;;;2.65;1.60;;;16.50;53.30;15.60;98601.00;;;;5053996;28;20064;-65
2022/04/07 01:22:26;;;;;;;1.65;1.40;;;16.40;53.20;15.60;98603.00;;;;5060738;28;20048;-65
2022/04/07 01:25:13;;;;;;;3.00;1.55;;;16.50;53.20;15.60;98597.00;;;;5039048;28;20076;-65
2022/04/07 01:27:59;;;;;;;2.20;1.50;;;16.50;53.20;15.60;98586.00;;;;5056425;28;20053;-65
2022/04/07 01:30:45;;;;;;;3.00;1.30;;;16.40;53.10;15.60;98589.00;;;;5053669;28;20052;-65
2022/04/07 01:33:32;;;;;;;4.85;1.38;;;16.40;53.20;15.60;98582.00;;;;5061634;28;20037;-65
2022/04/07 01:36:19;;;;;;;2.45;1.48;;;16.50;53.20;15.60;98579.00;;;;5043496;28;20037;-65
2022/04/07 01:39:05;;;;;;;2.53;1.23;;;16.40;53.10;15.60;98574.00;;;;5052078;28;20040;-65
2022/04/07 01:41:51;;;;;;;1.50;1.20;;;16.40;53.10;15.60;98570.00;;;;5061541;28;20090;-65
2022/04/07 01:44:42;;;;;;;2.20;1.52;;;16.50;53.20;15.60;98562.00;;;;5042126;28;20037;-65
2022/04/07 01:47:28;;;;;;;4.18;2.15;;;16.40;53.20;15.60;98549.00;;;;5064140;28;20417;-65
2022/04/07 01:50:14;;;;;;;2.55;1.33;;;16.50;53.90;15.60;98550.00;;;;5057359;28;20052;-65
2022/04/07 01:53:01;;;;;;;1.60;1.05;;;16.40;53.20;15.60;98538.00;;;;5025060;28;20544;-66
2022/04/07 01:55:47;;;;;;;2.22;1.30;;;16.50;53.20;15.60;98540.00;;;;5043288;28;20045;-65
2022/04/07 01:58:34;;;;;;;1.00;0.90;;;16.40;53.20;15.60;98531.00;;;;5052343;28;20493;-65
2022/04/07 02:01:20;;;;;;;2.42;1.38;;;16.40;53.20;15.60;98544.00;;;;5053006;28;20041;-65
2022/04/07 02:04:06;;;;;;;2.28;1.30;;;16.50;53.20;15.60;98548.00;;;;5058681;28;20039;-65
2022/04/07 02:06:52;;;;;;;4.68;1.40;;;16.40;53.10;15.60;98537.00;;;;5043059;28;20469;-65
2022/04/07 02:09:38;;;;;;;2.80;1.20;;;16.30;53.00;15.60;98518.00;;;;5071635;28;20040;-65
2022/04/07 02:12:26;;;;;;;1.90;0.98;;;16.40;53.00;15.60;98538.00;;;;5060810;28;20045;-65
2022/04/07 02:15:12;;;;;;;3.05;1.40;;;16.40;53.00;15.60;98519.00;;;;5062358;28;20090;-65
2022/04/07 02:17:58;;;;;;;3.35;1.02;;;16.40;53.00;15.60;98515.00;;;;5041470;28;20087;-65
2022/04/07 02:20:44;;;;;;;3.08;0.90;;;16.40;53.00;15.60;98516.00;;;;5065333;28;20501;-65
2022/04/07 02:23:34;;;;;;;3.25;0.93;;;16.40;52.90;15.60;98514.00;;;;5052264;28;20509;-65
2022/04/07 02:26:20;;;;;;;2.95;1.20;;;16.40;52.90;15.60;98505.00;;;;5043048;28;20063;-65
2022/04/07 02:29:06;;;;;;;3.17;1.27;;;16.40;52.80;15.60;98503.00;;;;5076082;28;20414;-65
2022/04/07 02:31:52;;;;;;;2.35;1.00;;;16.40;52.80;15.60;98496.00;;;;5056033;28;20044;-65
2022/04/07 02:34:41;;;;;;;2.05;1.20;;;16.40;52.80;15.60;98491.00;;;;5061435;28;20040;-65
2022/04/07 02:37:27;;;;;;;2.20;0.82;;;16.40;52.90;15.60;98484.00;;;;5042033;28;20044;-65
2022/04/07 02:40:13;;;;;;;3.65;1.20;;;16.40;53.00;15.60;98480.00;;;;5056915;28;20075;-65
2022/04/07 02:42:59;;;;;;;3.13;1.15;;;16.40;53.00;15.60;98473.00;;;;5056211;28;20043;-66
2022/04/07 02:45:45;;;;;;;2.83;1.05;;;16.40;53.10;15.60;98476.00;;;;5060398;28;20059;-65
2022/04/07 02:48:31;;;;;;;1.38;0.75;;;16.40;53.10;15.60;98474.00;;;;5046846;28;20040;-65
2022/04/07 02:51:17;;;;;;;3.25;1.00;;;16.40;53.20;15.60;98466.00;;;;5056977;28;20044;-65
2022/04/07 02:54:04;;;;;;;1.60;0.90;;;16.40;53.20;15.60;98453.00;;;;5055017;28;20037;-65
2022/04/07 02:56:50;;;;;;;2.35;0.90;;;16.40;53.20;15.60;98459.00;;;;5039731;28;20041;-65
2022/04/07 02:59:36;;;;;;;5.30;1.05;;;16.40;53.30;15.60;98448.00;;;;5060506;28;20086;-65
2022/04/07 03:02:22;;;;;;;2.83;1.10;;;16.40;53.30;15.60;98450.00;;;;5047179;28;20040;-65
2022/04/07 03:05:08;;;;;;;3.30;0.85;;;16.40;53.30;15.60;98445.00;;;;5058713;28;20040;-65
2022/04/07 03:07:54;;;;;;;3.63;0.85;;;16.30;53.20;15.60;98444.00;;;;5050928;28;20080;-65
2022/04/07 03:10:40;;;;;;;2.20;0.80;;;16.30;53.20;15.60;98438.00;;;;5062517;28;20061;-65
2022/04/07 03:13:27;;;;;;;1.23;0.70;;;16.30;53.30;15.60;98420.00;;;;5053594;28;20049;-65
2022/04/07 03:16:13;;;;;;;2.38;0.73;;;16.30;53.30;15.60;98417.00;;;;5060062;28;20072;-65
2022/04/07 03:18:59;;;;;;;2.75;0.88;;;16.30;53.30;15.60;98417.00;;;;5057030;28;20466;-65
2022/04/07 03:21:45;;;;;;;3.30;0.85;;;16.30;54.00;15.60;98411.00;;;;5055256;28;20049;-65
2022/04/07 03:24:31;;;;;;;3.25;0.90;;;16.30;53.30;15.60;98402.00;;;;5059138;28;20041;-65
2022/04/07 03:27:18;;;;;;;4.35;1.10;;;16.30;53.30;15.50;98393.00;;;;5056953;28;20041;-65
2022/04/07 03:30:05;;;;;;;4.80;0.90;;;16.30;53.30;15.60;98401.00;;;;5055886;28;20063;-65
2022/04/07 03:32:51;;;;;;;3.13;0.95;;;16.30;53.40;15.60;98387.00;;;;5054451;28;20431;-65
2022/04/07 03:35:37;;;;;;;0.98;0.45;;;16.30;53.40;15.60;98377.00;;;;5059491;28;20046;-65
2022/04/07 03:38:23;;;;;;;3.60;0.90;;;16.30;53.40;15.60;98366.00;;;;5047034;28;20047;-65
2022/04/07 03:41:09;;;;;;;1.65;0.50;;;16.30;53.40;15.60;98366.00;;;;5053838;28;20102;-66
2022/04/07 03:43:56;;;;;;;2.28;0.80;;;16.30;53.40;15.60;98350.00;;;;5058736;28;20485;-65
2022/04/07 03:46:42;;;;;;;3.90;0.98;;;16.30;53.40;15.60;98352.00;;;;5059036;28;20044;-65
2022/04/07 03:49:28;;;;;;;2.83;0.88;;;16.30;53.40;15.60;98350.00;;;;5052642;28;20048;-65
2022/04/07 03:52:15;;;;;;;2.40;1.10;;;16.30;53.30;15.60;98345.00;;;;5058296;28;20071;-65
2022/04/07 03:55:01;;;;;;;1.48;0.70;;;16.30;53.20;15.60;98330.00;;;;5050693;28;20053;-65
2022/04/07 03:57:47;;;;;;;3.60;1.00;;;16.40;53.20;15.60;98325.00;;;;5054882;28;20047;-65
2022/04/07 04:00:33;;;;;;;1.90;0.63;;;16.40;53.20;15.60;98312.00;;;;5056908;28;20037;-65
2022/04/07 04:03:19;;;;;;;3.03;0.88;;;16.30;53.10;15.50;98312.00;;;;5053176;28;20047;-65
2022/04/07 04:06:05;;;;;;;4.53;0.70;;;16.30;53.00;15.50;98310.00;;;;5040383;28;20067;-65
2022/04/07 04:08:51;;;;;;;1.95;0.70;;;16.30;53.00;15.50;98299.00;;;;5052639;28;20045;-65
2022/04/07 04:11:37;;;;;;;3.35;1.10;;;16.30;52.90;15.50;98294.00;;;;5045283;28;20064;-65
2022/04/07 04:14:23;;;;;;;3.05;0.70;;;16.30;52.80;15.50;98291.00;;;;5055969;28;20032;-65
2022/04/07 04:17:09;;;;;;;4.25;0.90;;;16.20;52.80;15.50;98286.00;;;;5040857;28;20040;-65
2022/04/07 04:19:55;;;;;;;3.22;1.05;;;16.30;52.80;15.50;98282.00;;;;5047154;28;20136;-65
2022/04/07 04:22:41;;;;;;;4.03;0.82;;;16.30;52.90;15.50;98275.00;;;;5059895;28;20500;-65
2022/04/07 04:25:27;;;;;;;3.25;1.08;;;16.30;52.90;15.50;98273.00;;;;5063455;28;20114;-65
2022/04/07 04:28:14;;;;;;;3.40;0.93;;;16.30;52.80;15.50;98265.00;;;;5054657;28;20041;-65
2022/04/07 04:31:00;;;;;;;6.10;1.15;;;16.30;52.90;15.50;98278.00;;;;5043946;28;20098;-65
2022/04/07 04:33:46;;;;;;;3.05;0.70;;;16.30;52.90;15.50;98255.00;;;;5057343;28;20044;-65
2022/04/07 04:36:34;;;;;;;4.15;1.40;;;16.30;52.80;15.50;98259.00;;;;5058004;28;20037;-65
2022/04/07 04:39:20;;;;;;;;;;;16.40;52.90;15.50;98243.00;;;;5064019;28;20124;-65
2022/04/07 04:42:06;;;;;;;4.57;1.25;;;16.40;52.90;15.50;98233.00;;;;5056157;28;20326;-65
2022/04/07 04:44:52;;;;;;;5.20;1.20;;;16.30;52.50;15.50;98234.00;;;;5062464;28;20048;-65
2022/04/07 04:47:40;;;;;;;4.32;1.02;;;16.40;52.50;15.50;98237.00;;;;5055009;28;20092;-65
2022/04/07 04:50:27;;;;;;;2.40;1.00;;;16.40;52.50;15.50;98228.00;;;;5050931;28;20051;-65
2022/04/07 04:53:13;;;;;;;3.55;0.80;;;16.40;52.60;15.50;98204.00;;;;5045357;28;20052;-65
2022/04/07 04:55:59;;;;;;;1.50;0.82;;;16.40;52.60;15.50;98203.00;;;;5055973;28;20544;-66
2022/04/07 04:58:45;;;;;;;3.83;1.00;;;16.20;52.50;15.50;98188.00;;;;5059709;28;20051;-65
2022/04/07 05:01:31;;;;;;;3.10;1.00;;;16.30;52.60;15.50;98188.00;;;;5047278;28;20531;-65
2022/04/07 05:04:17;;;;;;;4.40;1.20;;;16.30;52.60;15.50;98193.00;;;;5060069;28;20037;-65
2022/04/07 05:07:04;;;;;;;3.33;0.93;;;16.30;52.70;15.50;98179.00;;;;5061843;28;20474;-65
2022/04/07 05:09:55;;;;;;;1.42;0.90;;;16.30;52.70;15.50;98180.00;;;;5058987;28;20252;-66
2022/04/07 05:12:41;;;;;;;3.22;0.95;;;16.30;52.80;15.50;98163.00;;;;5054747;28;20044;-65
2022/04/07 05:15:28;;;;;;;3.55;1.00;;;16.30;52.70;15.50;98156.00;;;;5057335;28;20489;-65
2022/04/07 05:18:14;;;;;;;2.88;1.15;;;16.30;52.70;15.50;98155.00;;;;5062299;28;20040;-65
2022/04/07 05:21:00;;;;;;;4.20;1.45;;;16.30;52.80;15.50;98135.00;;;;5054329;28;20044;-65
2022/04/07 05:23:46;;;;;;;1.98;1.13;;;16.30;52.80;15.50;98132.00;;;;5055914;28;20434;-65
2022/04/07 05:26:32;;;;;;;4.13;1.23;;;16.30;52.80;15.50;98102.00;;;;5059082;28;20048;-65
2022/04/07 05:29:18;;;;;;;3.53;1.13;;;16.30;52.90;15.50;98094.00;;;;5054155;28;20049;-66
2022/04/07 05:32:05;;;;;;;3.83;1.60;;;16.30;52.90;15.50;98086.00;;;;5058066;28;20033;-65
2022/04/07 05:34:51;;;;;;;5.00;1.40;;;16.30;52.80;15.50;98071.00;;;;5056457;28;20033;-65
2022/04/07 05:37:37;;;;;;;3.15;1.17;;;16.30;52.70;15.50;98070.00;;;;5053683;28;20089;-65
2022/04/07 05:40:24;;;;;;;3.00;1.13;;;16.30;52.70;15.50;98065.00;;;;5043371;28;20458;-65
2022/04/07 05:43:10;;;;;;;3.33;1.08;;;16.30;52.70;15.50;98065.00;;;;5053042;28;20045;-65
2022/04/07 05:45:56;;;;;;;2.72;0.88;;;16.30;52.60;15.50;98066.00;;;;5042407;28;20403;-65
2022/04/07 05:48:42;;;;;;;5.00;1.13;;;16.30;52.60;15.50;98055.00;;;;5056890;28;20055;-65
2022/04/07 05:51:28;;;;;;;3.00;0.70;;;16.30;52.40;15.50;98059.00;;;;5059101;28;20044;-66
2022/04/07 05:54:16;;;;;;;4.95;1.05;;;16.30;52.30;15.50;98051.00;;;;5056210;28;20040;-65
2022/04/07 05:57:03;;;;;;;5.30;0.70;;;16.30;52.30;15.50;98037.00;;;;5060033;28;20098;-65
2022/04/07 05:59:49;;;;;;;4.72;0.90;;;16.30;52.20;15.50;98026.00;;;;5027855;28;20486;-65
2022/04/07 06:02:36;;;;;;;2.28;0.90;;;16.30;52.10;15.50;98015.00;;;;5057754;28;20053;-65
2022/04/07 06:05:22;;;;;;;3.17;0.73;;;16.30;52.20;15.50;97993.00;;;;5047787;28;20106;-65
2022/04/07 06:08:08;;;;;;;2.63;0.70;;;16.30;52.10;15.50;97981.00;;;;5065279;28;20060;-64
2022/04/07 06:10:54;;;;;;;2.10;0.65;;;16.30;52.10;15.50;97997.00;;;;5059519;28;20410;-65
2022/04/07 06:13:40;;;;;;;5.25;1.20;;;16.30;52.10;15.50;97983.00;;;;5046922;28;20044;-65
2022/04/07 06:16:26;;;;;;;3.13;0.80;;;16.30;52.20;15.50;97985.00;;;;5061262;28;20406;-65
2022/04/07 06:19:12;;;;;;;1.58;0.60;;;16.30;52.30;15.50;97986.00;;;;5053355;28;20036;-65
2022/04/07 06:21:58;;;;;;;2.83;0.75;;;16.30;52.40;15.50;97973.00;;;;5062280;28;20538;-65
2022/04/07 06:24:44;;;;;;;2.03;0.73;;;16.30;52.50;15.50;97974.00;;;;5053353;28;20037;-65
2022/04/07 06:27:44;;;;;;;1.33;0.88;;;16.30;52.60;15.50;97975.00;;;;5063248;28;20114;-65
2022/04/07 06:30:30;;;;;;;3.88;1.23;;;16.20;52.70;15.50;97971.00;;;;5060988;28;20045;-65
2022/04/07 06:33:16;;;;;;;2.38;0.90;;;16.30;52.80;15.50;97958.00;;;;5059714;28;20072;-65
2022/04/07 06:36:03;;;;;;;2.15;1.45;;;16.30;53.00;15.50;97946.00;;;;5055453;28;20094;-65
2022/04/07 06:38:49;;;;;;;3.80;1.30;;;16.30;53.10;15.50;97945.00;;;;5040247;28;20486;-65
2022/04/07 06:41:35;;;;;;;3.13;1.45;;;16.30;53.20;15.50;97933.00;;;;5062824;28;20059;-65
2022/04/07 06:44:21;;;;;;;1.80;1.30;;;16.30;53.30;15.50;97933.00;;;;5054190;28;20384;-65
2022/04/07 06:47:07;;;;;;;1.73;1.48;;;16.30;53.50;15.50;97922.00;;;;5060362;28;20091;-65
2022/04/07 06:49:53;;;;;;;2.00;1.80;;;16.30;53.60;15.50;97918.00;;;;5058950;28;20474;-65
2022/04/07 06:52:40;;;;;;;4.78;2.22;;;16.20;53.70;15.50;97903.00;;;;5041296;28;20041;-65
2022/04/07 06:55:28;;;;;;;3.97;2.05;;;16.20;53.90;15.50;97899.00;;;;5066714;28;20067;-65
2022/04/07 06:58:14;;;;;;;2.33;1.95;;;16.20;53.90;15.50;97898.00;;;;5054059;28;20033;-66
2022/04/07 07:01:00;;;;;;;2.53;1.83;;;16.20;54.00;15.50;97870.00;;;;5067231;28;20091;-65
2022/04/07 07:03:46;;;;;;;4.60;1.70;;;16.20;54.00;15.50;97871.00;;;;5055965;28;20051;-65
2022/04/07 07:06:32;;;;;;;2.53;2.10;;;16.20;54.10;15.50;97871.00;;;;5061576;28;20044;-65
2022/04/07 07:09:18;;;;;;;2.85;1.60;;;16.20;54.10;15.50;97858.00;;;;5062584;28;20064;-65
2022/04/07 07:12:04;;;;;;;2.95;1.92;;;16.20;54.10;15.50;97859.00;;;;5040475;28;20041;-65
2022/04/07 07:14:50;;;;;;;1.70;1.58;;;16.20;54.20;15.50;97871.00;;;;5059968;28;20036;-65
2022/04/07 07:17:39;;;;;;;2.25;1.50;;;16.20;54.20;15.40;97852.00;;;;5060607;28;20424;-65
2022/04/07 07:20:25;;;;;;;2.05;1.30;;;16.20;54.40;15.40;97846.00;;;;5045757;28;20036;-65
2022/04/07 07:23:11;;;;;;;1.40;1.30;;;16.20;54.40;15.40;97846.00;;;;5051335;28;20187;-65
2022/04/07 07:25:57;;;;;;;1.15;1.05;;;16.20;54.40;15.40;97849.00;;;;5034437;28;20123;-65
2022/04/07 07:28:43;;;;;;;1.92;1.00;;;16.20;54.50;15.40;97839.00;;;;5068332;28;20337;-65
2022/04/07 07:31:30;;;;;;;0.90;0.90;;;16.20;54.50;15.40;97845.00;;;;5055909;28;20094;-65
2022/04/07 07:34:16;;;;;;;3.00;1.05;;;16.20;54.50;15.40;97835.00;;;;5060736;28;20037;-65
2022/04/07 07:37:03;;;;;;;1.40;0.73;;;16.20;55.20;15.40;97830.00;;;;5060635;28;20245;-65
2022/04/07 07:39:50;;;;;;;1.40;0.75;;;16.20;54.60;15.40;97832.00;;;;5060809;28;20542;-65
2022/04/07 07:42:36;;;;;;;0.60;0.60;;;16.20;54.60;15.40;97820.00;;;;5031354;28;20047;-65
2022/04/07 07:45:23;;;;;;;1.27;0.90;;;16.20;54.60;15.40;97828.00;;;;5063835;28;20649;-65
2022/04/07 07:48:09;;;;;;;5.40;0.77;;;16.20;54.70;15.40;97828.00;;;;5041286;28;20195;-65
2022/04/07 07:50:56;;;;;;;1.08;0.68;;;16.20;54.70;15.40;97814.00;;;;5055222;28;20041;-65
2022/04/07 07:53:45;;;;;;;0.88;0.47;;;16.20;54.70;15.40;97805.00;;;;5056652;28;20044;-65
2022/04/07 07:56:31;;;;;;;1.45;0.50;;;16.20;54.70;15.40;97811.00;;;;5054811;28;20036;-65
2022/04/07 07:59:20;;;;;;;2.85;0.80;;;16.20;54.80;15.40;97828.00;;;;5065312;28;20040;-64
2022/04/07 08:02:06;;;;;;;2.15;0.55;;;16.10;54.70;15.40;97820.00;;;;5065049;28;20512;-65
2022/04/07 08:04:52;;;;;;;1.08;0.45;;;16.10;54.70;15.40;97842.00;;;;5047397;28;20044;-65
2022/04/07 08:07:40;;;;;;;0.77;0.52;;;16.10;54.70;15.40;97875.00;;;;5043855;28;20124;-65
2022/04/07 08:10:26;;;;;;;2.28;0.40;;;16.10;54.80;15.50;97881.00;;;;5043112;28;20390;-65
2022/04/07 08:13:12;;;;;;;1.65;0.40;;;16.10;54.70;15.50;97867.00;;;;5043335;28;20052;-65
2022/04/07 08:15:58;;;;;;;0.90;0.38;;;16.10;54.70;15.50;97851.00;;;;5060363;28;20048;-65
2022/04/07 08:18:44;;;;;;;1.10;0.40;;;16.20;54.70;15.60;97848.00;;;;5065126;28;20085;-65
2022/04/07 08:21:31;;;;;;;1.55;0.50;;;16.20;54.60;15.60;97820.00;;;;5059661;28;20032;-65
2022/04/07 08:24:19;;;;;;;1.05;0.30;;;16.20;54.60;15.60;97871.00;;;;5063089;28;20489;-65
2022/04/07 08:27:05;;;;;;;;;;;16.20;54.50;15.60;97852.00;;;;5060434;28;20040;-65
2022/04/07 08:29:52;;;;;;;0.52;0.45;;;16.20;54.40;15.60;97875.00;;;;5061460;28;19924;-66
2022/04/07 08:32:38;;;;;;;0.20;0.20;;;16.30;54.30;15.60;97861.00;;;;5055980;28;20055;-65
2022/04/07 08:35:24;;;;;;;1.83;0.30;;;16.30;54.20;15.60;97838.00;;;;5078517;28;20048;-65
2022/04/07 08:38:14;;;;;;;0.63;0.30;;;16.30;54.10;15.60;97812.00;;;;5053060;28;20468;-65
2022/04/07 08:41:00;;;;;;;1.30;0.50;;;16.30;54.00;15.60;97818.00;;;;5061415;28;20469;-65
2022/04/07 08:43:46;;;;;;;1.05;0.40;;;16.30;54.00;15.60;97828.00;;;;5056283;28;20051;-65
2022/04/07 08:46:32;;;;;;;1.75;0.45;;;16.30;54.00;15.60;97825.00;;;;5057817;28;20486;-65
2022/04/07 08:49:22;;;;;;;1.77;0.32;;;16.30;53.90;15.60;97825.00;;;;5058741;28;20413;-65
2022/04/07 08:52:09;;;;;;;0.75;0.40;;;16.20;53.80;15.60;97835.00;;;;5043278;28;20421;-65
2022/04/07 08:54:55;;;;;;;1.02;0.30;;;16.30;53.90;15.60;97843.00;;;;5040511;28;20063;-65
2022/04/07 08:57:41;;;;;;;0.85;0.20;;;16.30;53.80;15.60;97842.00;;;;5057076;28;20146;-65
2022/04/07 09:00:27;;;;;;;0.47;0.25;;;16.30;53.80;15.60;97839.00;;;;5045046;28;20395;-65
2022/04/07 09:03:13;;;;;;;0.50;0.30;;;16.30;53.70;15.60;97832.00;;;;5061240;28;20043;-65
2022/04/07 09:06:01;;;;;;;1.05;0.35;;;16.20;53.60;15.60;97805.00;;;;5065058;28;20447;-65
2022/04/07 09:08:47;;;;;;;;;;;16.30;53.60;15.60;97812.00;;;;5049524;28;20466;-65
2022/04/07 09:11:35;;;;;;;1.50;0.40;;;16.30;53.70;15.60;97815.00;;;;5057515;28;19965;-65
2022/04/07 09:14:21;;;;;;;1.35;0.30;;;16.30;53.50;15.60;97816.00;;;;5035430;28;20076;-65
2022/04/07 09:17:07;;;;;;;1.33;0.20;;;16.30;53.40;15.50;97816.00;;;;5044063;28;20052;-65
2022/04/07 09:19:53;;;;;;;0.82;0.10;;;16.30;53.30;15.60;97816.00;;;;5060109;28;20037;-65
2022/04/07 09:22:39;;;;;;;0.73;0.20;;;16.20;53.30;15.50;97818.00;;;;5077641;28;20040;-65
2022/04/07 09:25:26;;;;;;;0.60;0.40;;;16.20;53.30;15.50;97815.00;;;;5062259;28;20040;-65
2022/04/07 09:28:12;;;;;;;0.70;0.20;;;16.20;53.30;15.50;97825.00;;;;5073045;28;20363;-65
2022/04/07 09:30:59;;;;;;;1.75;0.30;;;16.20;53.30;15.50;97799.00;;;;5043100;28;20242;-65
2022/04/07 09:33:55;;;;;;;0.40;0.38;;;16.20;53.20;15.50;97792.00;;;;5048305;28;20482;-65
2022/04/07 09:36:41;;;;;;;0.22;0.17;;;16.20;53.80;15.50;97778.00;;;;5032404;28;20048;-65
2022/04/07 09:39:27;;;;;;;3.20;0.45;;;16.20;53.10;15.50;97780.00;;;;5048098;28;20040;-65
2022/04/07 09:42:25;;;;;;;0.73;0.25;;;16.20;53.10;15.50;97750.00;;;;5054802;28;20482;-65
2022/04/07 09:45:12;;;;;;;1.35;0.40;;;16.10;53.00;15.50;97740.00;;;;5040059;28;20048;-65
2022/04/07 09:47:58;;;;;;;0.98;0.38;;;16.10;53.00;15.50;97728.00;;;;5061996;28;20095;-65
2022/04/07 09:51:06;;;;;;;0.77;0.30;;;16.20;53.10;15.50;97709.00;;;;5053343;28;20044;-65
2022/04/07 09:53:55;;;;;;;0.45;0.20;;;16.10;52.90;15.50;97722.00;;;;5046750;28;20522;-65
2022/04/07 09:56:41;;;;;;;0.88;0.30;;;16.20;53.00;15.50;97726.00;;;;5054890;28;20028;-65
2022/04/07 09:59:28;;;;;;;0.35;0.20;;;16.10;52.80;15.50;97711.00;;;;5040782;28;20502;-65
2022/04/07 10:02:15;;;;;;;0.30;0.10;;;16.10;52.90;15.50;97714.00;;;;5043193;28;20426;-65
2022/04/07 10:05:02;;;;;;;0.95;0.28;;;16.20;52.90;15.50;97727.00;;;;5043859;28;20120;-65
2022/04/07 10:07:49;;;;;;;0.32;0.13;;;16.20;53.00;15.50;97729.00;;;;5059684;28;20043;-65
2022/04/07 10:10:35;;;;;;;0.75;0.28;;;16.20;52.90;15.50;97724.00;;;;5046815;28;20040;-65
2022/04/07 10:13:21;;;;;;;1.27;0.35;;;16.10;52.90;15.40;97725.00;;;;5064768;28;20056;-65
2022/04/07 10:16:07;;;;;;;0.80;0.20;;;16.20;53.70;15.40;97723.00;;;;5042726;28;20033;-65
2022/04/07 10:19:01;;;;;;;0.32;0.17;;;16.10;53.70;15.40;97722.00;;;;5040127;28;20494;-65
2022/04/07 10:21:55;;;;;;;1.75;0.20;;;16.20;53.10;15.40;97727.00;;;;5057851;28;20087;-65
2022/04/07 10:24:47;;;;;;;0.17;0.10;;;16.10;53.10;15.40;97722.00;;;;5058174;28;20050;-65
2022/04/07 10:27:44;;;;;;;0.85;0.30;;;16.10;53.20;15.40;97725.00;;;;5033743;28;20135;-65
2022/04/07 10:30:30;;;;;;;0.60;0.22;;;16.10;53.20;15.40;97731.00;;;;5035070;28;20256;-65
2022/04/07 10:33:49;;;;;;;0.45;0.10;;;16.10;53.20;15.40;97744.00;;;;5052984;28;20041;-65
2022/04/07 10:36:40;;;;;;;0.15;0.10;;;16.10;53.20;15.40;97756.00;;;;5044737;28;20040;-65
2022/04/07 10:39:26;;;;;;;0.70;0.20;;;16.10;53.20;15.40;97750.00;;;;5057826;28;20175;-65
2022/04/07 10:42:12;;;;;;;1.58;0.22;;;16.10;53.10;15.30;97756.00;;;;5043856;28;20044;-65
2022/04/07 10:45:04;;;;;;;1.08;0.38;;;16.10;53.10;15.40;97745.00;;;;5046824;28;20041;-64
2022/04/07 10:48:26;;;;;;;1.80;0.40;;;16.10;53.20;15.30;97746.00;;;;5053358;28;20033;-65
2022/04/07 10:51:13;;;;;;;1.65;0.40;;;16.10;53.00;15.30;97732.00;;;;5044713;28;20044;-64
2022/04/07 10:53:59;;;;;;;0.97;0.40;;;16.20;52.90;15.30;97745.00;;;;5046065;28;20036;-65
2022/04/07 10:56:49;;;;;;;1.75;0.50;;;16.10;53.00;15.40;97725.00;;;;5062603;28;20077;-64
2022/04/07 10:59:36;;;;;;;1.48;0.45;;;16.10;52.80;15.30;97712.00;;;;5053773;28;20044;-64
2022/04/07 11:02:31;;;;;;;1.30;0.30;;;16.10;52.70;15.30;97725.00;;;;5055482;28;20045;-64
2022/04/07 11:05:24;;;;;;;1.13;0.30;;;16.10;52.60;15.30;97715.00;;;;5059012;28;20193;-65
2022/04/07 11:08:11;;;;;;;3.78;1.33;;;16.20;52.40;15.30;97706.00;;;;5066738;28;20401;-65
2022/04/07 11:10:58;;;;;;;2.75;0.60;;;16.10;52.40;15.30;97715.00;;;;5032262;28;20040;-65
2022/04/07 11:13:45;;;;;;;2.47;0.40;;;16.10;52.40;15.30;97718.00;;;;5064105;28;20033;-65
2022/04/07 11:16:36;;;;;;;1.77;0.43;;;16.10;52.40;15.30;97731.00;;;;5057647;28;20040;-65
2022/04/07 11:19:50;;;;;;;3.33;0.60;;;16.10;52.30;15.30;97708.00;;;;5046167;28;20040;-65
2022/04/07 11:22:56;;;;;;;1.88;0.40;;;16.10;52.20;15.30;97698.00;;;;5043971;28;20051;-65
2022/04/07 11:25:42;;;;;;;2.40;0.50;;;16.10;52.10;15.30;97694.00;;;;5054349;28;20119;-65
2022/04/07 11:28:32;;;;;;;3.50;0.57;;;16.10;52.20;15.30;97693.00;;;;5055846;28;20454;-65
2022/04/07 11:31:38;;;;;;;2.35;0.63;;;16.10;52.10;15.30;97696.00;;;;5059776;28;20338;-64
2022/04/07 11:34:39;;;;;;;1.60;0.40;;;16.10;52.20;15.40;97703.00;;;;5052269;28;20119;-64
2022/04/07 11:37:26;;;;;;;3.53;0.60;;;16.10;52.10;15.30;97713.00;;;;5053357;28;20557;-65
2022/04/07 11:40:12;;;;;;;5.38;0.70;;;16.10;51.90;15.30;97724.00;;;;5057044;28;20032;-67
2022/04/07 11:42:58;;;;;;;2.80;0.60;;;16.20;51.80;15.30;97733.00;;;;5053140;28;20048;-65
2022/04/07 11:45:45;;;;;;;1.77;0.40;;;16.10;51.70;15.30;97753.00;;;;5045153;28;20044;-65
2022/04/07 11:48:33;;;;;;;2.67;0.40;;;16.20;51.70;15.30;97742.00;;;;5059266;28;20040;-66
2022/04/07 11:51:19;;;;;;;4.55;0.73;;;16.20;52.20;15.30;97741.00;;;;5058561;28;20036;-65
2022/04/07 11:54:05;;;;;;;2.13;0.60;;;16.10;51.40;15.30;97736.00;;;;5056517;28;20545;-65
2022/04/07 11:56:51;;;;;;;1.65;0.40;;;16.10;51.30;15.20;97740.00;;;;5053253;28;20395;-65
2022/04/07 11:59:37;;;;;;;1.88;0.50;;;16.10;51.20;15.20;97741.00;;;;5053784;28;20059;-65
2022/04/07 12:02:24;;;;;;;2.58;0.90;;;16.10;51.30;15.30;97739.00;;;;5044179;28;20079;-65
2022/04/07 12:05:11;;;;;;;3.00;0.68;;;16.00;51.60;15.30;97731.00;;;;5051286;28;20123;-65
2022/04/07 12:08:11;;;;;;;2.05;0.60;;;16.00;51.60;15.30;97752.00;;;;5028298;28;20428;-65
2022/04/07 12:10:57;;;;;;;2.85;0.60;;;16.00;52.30;15.30;97739.00;;;;5055957;28;20040;-65
2022/04/07 12:13:43;;;;;;;1.40;0.60;;;16.10;51.80;15.30;97744.00;;;;5029482;28;20064;-65
2022/04/07 12:16:29;;;;;;;1.67;0.40;;;16.10;51.60;15.30;97748.00;;;;5057166;28;20029;-65
2022/04/07 12:19:16;;;;;;;2.72;0.50;;;16.10;51.80;15.30;97754.00;;;;5040962;28;20047;-65
2022/04/07 12:22:02;;;;;;;2.47;0.55;;;16.10;51.50;15.30;97747.00;;;;5051125;28;20036;-64
2022/04/07 12:25:05;;;;;;;4.15;0.80;;;16.10;51.20;15.30;97774.00;;;;5064111;28;20478;-65